createdAt,value
2022-11-29T00:00:50.584Z,5.00
2022-11-29T00:03:55.755Z,5.00
2022-11-29T00:06:58.883Z,5.10
2022-11-29T00:10:02.056Z,5.10
2022-11-29T00:13:05.236Z,5.10
2022-11-29T00:16:11.988Z,5.20
2022-11-29T00:19:15.312Z,5.10
2022-11-29T00:22:18.501Z,5.10
2022-11-29T00:25:21.632Z,5.10
2022-11-29T00:28:24.728Z,5.10
2022-11-29T00:31:32.265Z,5.10
2022-11-29T00:34:35.442Z,5.00
2022-11-29T00:37:38.803Z,5.00
2022-11-29T00:40:41.950Z,5.00
2022-11-29T00:43:45.402Z,5.00
2022-11-29T00:46:50.338Z,5.00
2022-11-29T00:49:53.438Z,5.00
2022-11-29T00:52:56.542Z,5.00
2022-11-29T00:55:59.720Z,5.10
2022-11-29T00:59:02.819Z,5.00
2022-11-29T01:02:07.356Z,4.90
2022-11-29T01:05:10.702Z,4.90
2022-11-29T01:08:14.412Z,4.90
2022-11-29T01:11:20.094Z,5.00
2022-11-29T01:14:23.740Z,4.90
2022-11-29T01:17:28.202Z,4.80
2022-11-29T01:20:31.414Z,4.90
2022-11-29T01:23:35.831Z,4.90
2022-11-29T01:26:39.047Z,5.00
2022-11-29T01:29:42.321Z,4.90
2022-11-29T01:32:46.803Z,4.90
2022-11-29T01:35:51.055Z,4.80
2022-11-29T01:38:54.588Z,4.80
2022-11-29T01:41:57.904Z,4.90
2022-11-29T01:45:09.038Z,5.00
2022-11-29T01:48:15.323Z,5.00
2022-11-29T01:51:18.498Z,4.90
2022-11-29T01:54:22.878Z,4.80
2022-11-29T01:57:27.175Z,4.70
2022-11-29T02:00:30.369Z,4.80
2022-11-29T02:03:34.888Z,4.80
2022-11-29T02:06:38.488Z,4.80
2022-11-29T02:09:41.631Z,4.70
2022-11-29T02:13:00.643Z,4.80
2022-11-29T02:16:12.133Z,4.80
2022-11-29T02:19:35.703Z,4.80
2022-11-29T02:22:45.995Z,4.80
2022-11-29T02:26:04.337Z,4.80
2022-11-29T02:29:30.513Z,4.90
2022-11-29T02:33:16.538Z,4.90
2022-11-29T02:36:37.582Z,5.00
2022-11-29T02:39:58.999Z,5.00
2022-11-29T02:43:20.279Z,5.00
2022-11-29T02:46:47.414Z,5.00
2022-11-29T02:50:18.735Z,4.90
2022-11-29T02:53:30.392Z,4.90
2022-11-29T02:56:38.783Z,4.80
2022-11-29T02:59:49.652Z,4.80
2022-11-29T03:03:01.960Z,4.80
2022-11-29T03:06:15.654Z,4.80
2022-11-29T03:09:30.034Z,4.90
2022-11-29T03:12:40.144Z,4.90
2022-11-29T03:15:50.735Z,4.80
2022-11-29T03:19:05.347Z,4.90
2022-11-29T03:22:14.984Z,4.90
2022-11-29T03:25:27.586Z,5.00
2022-11-29T03:28:34.074Z,4.90
2022-11-29T03:31:40.344Z,4.90
2022-11-29T03:34:57.523Z,4.70
2022-11-29T03:38:10.038Z,4.80
2022-11-29T03:41:24.105Z,4.70
2022-11-29T03:44:29.609Z,4.70
2022-11-29T03:47:37.219Z,4.80
2022-11-29T03:50:43.678Z,4.80
2022-11-29T03:53:52.845Z,4.80
2022-11-29T03:56:56.673Z,4.80
2022-11-29T04:00:06.682Z,4.80
2022-11-29T04:03:44.831Z,4.80
2022-11-29T04:07:05.492Z,4.80
2022-11-29T04:10:21.181Z,4.50
2022-11-29T04:13:48.032Z,4.40
2022-11-29T04:17:32.680Z,4.50
2022-11-29T04:21:06.783Z,4.60
2022-11-29T04:24:51.826Z,4.70
2022-11-29T04:28:46.342Z,4.70
2022-11-29T04:32:20.853Z,4.70
2022-11-29T04:35:39.923Z,4.80
2022-11-29T04:39:13.436Z,4.80
2022-11-29T04:42:46.095Z,4.80
2022-11-29T04:46:22.884Z,4.80
2022-11-29T04:49:43.987Z,4.90
2022-11-29T04:53:17.401Z,4.90
2022-11-29T04:56:29.731Z,5.00
2022-11-29T04:59:41.424Z,4.90
2022-11-29T05:02:55.557Z,5.00
2022-11-29T05:06:08.837Z,5.00
2022-11-29T05:09:24.526Z,4.90
2022-11-29T05:12:35.101Z,4.90
2022-11-29T05:15:58.861Z,4.90
2022-11-29T05:19:26.281Z,5.00
2022-11-29T05:22:40.729Z,5.00
2022-11-29T05:25:50.317Z,4.90
2022-11-29T05:29:02.637Z,4.90
2022-11-29T05:32:26.999Z,4.90
2022-11-29T05:35:51.986Z,4.90
2022-11-29T05:39:14.261Z,4.90
2022-11-29T05:42:48.980Z,4.70
2022-11-29T05:46:00.368Z,4.70
2022-11-29T05:49:17.029Z,4.60
2022-11-29T05:52:25.219Z,4.60
2022-11-29T05:55:41.585Z,4.70
2022-11-29T05:58:50.603Z,4.70
2022-11-29T06:02:01.697Z,4.80
2022-11-29T06:05:13.323Z,4.90
2022-11-29T06:08:23.283Z,4.90
2022-11-29T06:11:32.307Z,5.00
2022-11-29T06:14:59.167Z,5.00
2022-11-29T06:18:21.374Z,5.10
2022-11-29T06:21:36.721Z,5.20
2022-11-29T06:24:52.003Z,5.20
2022-11-29T06:28:10.723Z,5.20
2022-11-29T06:31:21.200Z,5.30
2022-11-29T06:34:30.978Z,5.30
2022-11-29T06:37:39.511Z,5.40
2022-11-29T06:40:43.185Z,5.50
2022-11-29T06:43:48.487Z,5.50
2022-11-29T06:47:00.201Z,5.50
2022-11-29T06:50:14.728Z,5.50
2022-11-29T06:53:24.331Z,5.50
2022-11-29T06:56:35.727Z,5.60
2022-11-29T06:59:50.260Z,5.60
2022-11-29T07:03:11.299Z,5.60
2022-11-29T07:06:19.698Z,5.60
2022-11-29T07:09:29.241Z,5.60
2022-11-29T07:12:32.976Z,5.60
2022-11-29T07:15:39.240Z,5.60
2022-11-29T07:18:50.818Z,5.70
2022-11-29T07:22:02.415Z,5.70
2022-11-29T07:25:19.263Z,5.80
2022-11-29T07:28:40.072Z,5.80
2022-11-29T07:31:55.219Z,5.90
2022-11-29T07:35:05.351Z,5.90
2022-11-29T07:38:17.501Z,5.80
2022-11-29T07:41:28.948Z,5.80
2022-11-29T07:44:40.091Z,5.80
2022-11-29T07:47:44.564Z,5.80
2022-11-29T07:50:48.402Z,5.80
2022-11-29T07:53:51.496Z,5.80
2022-11-29T07:56:54.630Z,5.80
2022-11-29T07:59:57.739Z,5.80
2022-11-29T08:03:02.267Z,5.90
2022-11-29T08:06:05.559Z,5.90
2022-11-29T08:09:08.683Z,6.00
2022-11-29T08:12:11.886Z,6.00
2022-11-29T08:15:15.297Z,6.00
2022-11-29T08:18:19.758Z,6.10
2022-11-29T08:21:23.007Z,6.10
2022-11-29T08:24:26.903Z,6.10
2022-11-29T08:27:30.203Z,6.00
2022-11-29T08:30:33.626Z,6.00
2022-11-29T08:33:39.013Z,6.00
2022-11-29T08:36:42.189Z,6.00
2022-11-29T08:39:45.727Z,5.70
2022-11-29T08:42:48.829Z,5.60
2022-11-29T08:45:53.310Z,5.70
2022-11-29T08:48:57.839Z,5.70
2022-11-29T08:52:14.812Z,5.70
2022-11-29T08:55:18.948Z,5.80
2022-11-29T08:58:22.201Z,5.80
2022-11-29T09:01:25.430Z,5.80
2022-11-29T09:04:30.004Z,5.90
2022-11-29T09:07:33.261Z,6.00
2022-11-29T09:10:36.405Z,6.00
2022-11-29T09:13:39.549Z,6.10
2022-11-29T09:16:42.712Z,6.10
2022-11-29T09:19:47.350Z,6.20
2022-11-29T09:22:50.507Z,6.30
2022-11-29T09:25:54.241Z,6.30
2022-11-29T09:28:57.996Z,6.40
2022-11-29T09:32:01.103Z,6.40
2022-11-29T09:35:06.031Z,6.40
2022-11-29T09:38:09.157Z,6.50
2022-11-29T09:41:29.034Z,6.40
2022-11-29T09:44:42.116Z,6.50
2022-11-29T09:48:02.308Z,6.50
2022-11-29T09:51:18.151Z,6.50
2022-11-29T09:54:31.161Z,6.50
2022-11-29T09:57:34.607Z,6.50
2022-11-29T10:00:42.697Z,6.50
2022-11-29T10:03:51.849Z,6.30
2022-11-29T10:07:02.261Z,6.30
2022-11-29T10:10:10.296Z,6.40
2022-11-29T10:13:20.413Z,6.40
2022-11-29T10:16:39.445Z,6.40
2022-11-29T10:19:46.374Z,6.30
2022-11-29T10:22:55.413Z,6.30
2022-11-29T10:26:00.025Z,6.30
2022-11-29T10:29:03.253Z,6.40
2022-11-29T10:32:15.011Z,6.30
2022-11-29T10:35:20.255Z,6.40
2022-11-29T10:38:32.518Z,6.50
2022-11-29T10:41:36.366Z,6.40
2022-11-29T10:44:39.464Z,6.40
2022-11-29T10:47:42.659Z,6.30
2022-11-29T10:50:48.793Z,6.20
2022-11-29T10:53:54.786Z,6.20
2022-11-29T10:57:00.129Z,5.90
2022-11-29T11:00:07.893Z,5.80
2022-11-29T11:03:18.198Z,5.80
2022-11-29T11:06:23.203Z,5.80
2022-11-29T11:09:32.959Z,5.90
2022-11-29T11:12:38.088Z,6.00
2022-11-29T11:15:41.178Z,6.10
2022-11-29T11:18:45.105Z,6.40
2022-11-29T11:21:48.273Z,6.30
2022-11-29T11:25:00.617Z,6.10
2022-11-29T11:28:18.118Z,6.10
2022-11-29T11:31:29.982Z,6.00
2022-11-29T11:34:35.150Z,5.90
2022-11-29T11:37:38.309Z,5.90
2022-11-29T11:40:43.135Z,5.90
2022-11-29T11:43:57.011Z,5.80
2022-11-29T11:47:02.224Z,5.90
2022-11-29T11:50:12.549Z,6.00
2022-11-29T11:53:24.820Z,5.90
2022-11-29T11:56:35.887Z,6.00
2022-11-29T11:59:39.113Z,6.00
2022-11-29T12:02:45.352Z,5.80
2022-11-29T12:05:49.758Z,5.80
2022-11-29T12:08:56.747Z,5.80
2022-11-29T12:12:11.819Z,5.80
2022-11-29T12:15:20.549Z,5.60
2022-11-29T12:18:30.068Z,5.50
2022-11-29T12:21:37.688Z,5.20
2022-11-29T12:24:48.536Z,5.30
2022-11-29T12:27:53.413Z,5.40
2022-11-29T12:31:07.452Z,5.50
2022-11-29T12:34:24.958Z,5.60
2022-11-29T12:37:35.345Z,5.70
2022-11-29T12:40:44.506Z,5.70
2022-11-29T12:44:00.018Z,5.80
2022-11-29T12:47:35.121Z,5.80
2022-11-29T12:50:49.681Z,5.70
2022-11-29T12:54:14.762Z,5.80
2022-11-29T12:57:28.712Z,5.90
2022-11-29T13:00:42.334Z,6.00
2022-11-29T13:03:56.217Z,6.00
2022-11-29T13:07:07.325Z,6.10
2022-11-29T13:10:30.855Z,6.20
2022-11-29T13:13:39.923Z,6.40
2022-11-29T13:16:52.643Z,6.50
2022-11-29T13:19:58.713Z,6.70
2022-11-29T13:23:14.359Z,6.60
2022-11-29T13:26:18.586Z,6.30
2022-11-29T13:29:22.712Z,6.40
2022-11-29T13:32:36.324Z,6.40
2022-11-29T13:35:47.214Z,6.40
2022-11-29T13:39:03.553Z,6.50
2022-11-29T13:42:13.945Z,6.40
2022-11-29T13:45:22.636Z,6.20
2022-11-29T13:48:46.915Z,6.10
2022-11-29T13:51:56.760Z,6.10
2022-11-29T13:55:23.428Z,5.90
2022-11-29T13:58:36.840Z,5.60
2022-11-29T14:01:48.825Z,5.60
2022-11-29T14:04:53.762Z,5.70
2022-11-29T14:08:26.096Z,5.80
2022-11-29T14:11:32.981Z,5.90
2022-11-29T14:14:48.375Z,6.00
2022-11-29T14:17:54.579Z,6.00
2022-11-29T14:21:02.151Z,6.00
2022-11-29T14:24:38.295Z,5.90
2022-11-29T14:28:03.281Z,6.10
2022-11-29T14:31:07.276Z,6.10
2022-11-29T14:34:17.200Z,6.20
2022-11-29T14:37:48.511Z,6.20
2022-11-29T14:40:57.829Z,6.30
2022-11-29T14:44:16.440Z,6.30
2022-11-29T14:47:32.208Z,6.30
2022-11-29T14:50:38.025Z,6.30
2022-11-29T14:53:44.488Z,6.30
2022-11-29T14:56:48.407Z,6.30
2022-11-29T14:59:54.322Z,6.40
2022-11-29T15:03:02.402Z,6.40
2022-11-29T15:06:16.390Z,6.40
2022-11-29T15:09:23.880Z,6.50
2022-11-29T15:12:31.233Z,6.50
2022-11-29T15:15:51.319Z,6.40
2022-11-29T15:19:28.074Z,6.40
2022-11-29T15:22:42.733Z,6.30
2022-11-29T15:25:51.538Z,6.30
2022-11-29T15:28:54.691Z,6.30
2022-11-29T15:32:00.546Z,6.30
2022-11-29T15:35:05.778Z,6.30
2022-11-29T15:38:18.804Z,6.40
2022-11-29T15:41:28.487Z,6.40
2022-11-29T15:44:33.255Z,6.40
2022-11-29T15:47:36.501Z,6.40
2022-11-29T15:50:41.511Z,6.40
2022-11-29T15:53:47.307Z,6.40
2022-11-29T15:56:55.303Z,6.50
2022-11-29T16:00:02.580Z,6.50
2022-11-29T16:03:08.352Z,6.40
2022-11-29T16:06:24.297Z,6.40
2022-11-29T16:09:32.333Z,6.40
2022-11-29T16:12:36.857Z,6.40
2022-11-29T16:15:41.623Z,6.40
2022-11-29T16:18:46.993Z,6.30
2022-11-29T16:22:01.467Z,6.30
2022-11-29T16:25:09.004Z,6.20
2022-11-29T16:28:14.152Z,6.20
2022-11-29T16:31:19.248Z,6.30
2022-11-29T16:34:27.935Z,6.30
2022-11-29T16:37:37.267Z,6.30
2022-11-29T16:40:40.733Z,6.30
2022-11-29T16:43:54.360Z,6.30
2022-11-29T16:47:13.114Z,6.30
2022-11-29T16:50:20.921Z,6.30
2022-11-29T16:53:38.579Z,6.30
2022-11-29T16:56:41.854Z,6.40
2022-11-29T16:59:47.814Z,6.40
2022-11-29T17:02:53.737Z,6.30
2022-11-29T17:05:57.276Z,6.30
2022-11-29T17:09:01.782Z,6.30
2022-11-29T17:12:06.440Z,6.30
2022-11-29T17:15:13.848Z,6.30
2022-11-29T17:18:18.782Z,6.30
2022-11-29T17:21:24.674Z,6.30
2022-11-29T17:24:29.015Z,6.20
2022-11-29T17:27:33.771Z,6.20
2022-11-29T17:30:42.582Z,6.20
2022-11-29T17:33:46.754Z,6.30
2022-11-29T17:36:52.217Z,6.20
2022-11-29T17:39:56.834Z,6.20
2022-11-29T17:43:00.820Z,6.20
2022-11-29T17:46:11.805Z,6.20
2022-11-29T17:49:15.574Z,6.30
2022-11-29T17:52:20.737Z,6.20
2022-11-29T17:55:29.383Z,6.20
2022-11-29T17:58:34.104Z,6.20
2022-11-29T18:01:39.934Z,6.20
2022-11-29T18:04:44.647Z,6.20
2022-11-29T18:08:00.984Z,6.20
2022-11-29T18:11:05.885Z,6.20
2022-11-29T18:14:11.874Z,6.30
2022-11-29T18:17:17.227Z,6.30
2022-11-29T18:20:21.192Z,6.30
2022-11-29T18:23:25.098Z,6.30
2022-11-29T18:26:31.669Z,6.30
2022-11-29T18:29:39.056Z,6.30
2022-11-29T18:32:46.739Z,6.30
2022-11-29T18:35:52.156Z,6.30
2022-11-29T18:38:58.451Z,6.30
2022-11-29T18:42:03.189Z,6.30
2022-11-29T18:45:09.501Z,6.30
2022-11-29T18:48:15.924Z,6.30
2022-11-29T18:51:22.885Z,6.30
2022-11-29T18:54:28.124Z,6.30
2022-11-29T18:57:35.000Z,6.30
2022-11-29T19:00:41.339Z,6.30
2022-11-29T19:03:50.525Z,6.30
2022-11-29T19:06:54.775Z,6.30
2022-11-29T19:09:59.773Z,6.20
2022-11-29T19:13:03.894Z,6.20
2022-11-29T19:16:13.748Z,6.20
2022-11-29T19:19:20.687Z,6.20
2022-11-29T19:22:27.221Z,6.20
2022-11-29T19:25:36.052Z,6.20
2022-11-29T19:28:42.251Z,6.20
2022-11-29T19:31:47.440Z,6.20
2022-11-29T19:34:57.920Z,6.20
2022-11-29T19:38:02.844Z,6.20
2022-11-29T19:41:10.925Z,6.20
2022-11-29T19:44:15.793Z,6.30
2022-11-29T19:47:21.961Z,6.30
2022-11-29T19:50:31.331Z,6.30
2022-11-29T19:53:38.019Z,6.30
2022-11-29T19:56:43.495Z,6.20
2022-11-29T19:59:49.996Z,6.20
2022-11-29T20:02:55.007Z,6.20
2022-11-29T20:06:01.700Z,6.20
2022-11-29T20:09:08.369Z,6.20
2022-11-29T20:12:12.518Z,6.20
2022-11-29T20:15:16.852Z,6.20
2022-11-29T20:18:28.944Z,6.20
2022-11-29T20:21:38.525Z,6.20
2022-11-29T20:24:45.693Z,6.20
2022-11-29T20:27:51.214Z,6.20
2022-11-29T20:30:57.294Z,6.20
2022-11-29T20:34:02.187Z,6.20
2022-11-29T20:37:40.407Z,6.20
2022-11-29T20:41:01.076Z,6.20
2022-11-29T20:44:12.373Z,6.20
2022-11-29T20:47:20.319Z,6.20
2022-11-29T20:50:27.707Z,6.20
2022-11-29T20:53:40.409Z,6.20
2022-11-29T20:56:44.815Z,6.20
2022-11-29T20:59:50.166Z,6.20
2022-11-29T21:02:54.261Z,6.20
2022-11-29T21:05:59.025Z,6.20
2022-11-29T21:09:05.314Z,6.20
2022-11-29T21:12:10.633Z,6.20
2022-11-29T21:15:16.842Z,6.20
2022-11-29T21:18:23.782Z,6.20
2022-11-29T21:21:34.530Z,6.10
2022-11-29T21:24:49.072Z,6.20
2022-11-29T21:27:55.639Z,6.10
2022-11-29T21:30:59.288Z,6.10
2022-11-29T21:34:03.866Z,6.10
2022-11-29T21:37:07.077Z,6.10
2022-11-29T21:40:13.160Z,6.10
2022-11-29T21:43:16.308Z,6.10
2022-11-29T21:46:19.581Z,6.10
2022-11-29T21:49:22.934Z,6.10
2022-11-29T21:52:26.052Z,6.10
2022-11-29T21:55:32.351Z,6.10
2022-11-29T21:58:37.906Z,6.20
2022-11-29T22:01:41.229Z,6.10
2022-11-29T22:04:44.736Z,6.10
2022-11-29T22:07:48.303Z,6.20
2022-11-29T22:11:01.649Z,6.10
2022-11-29T22:14:18.027Z,6.20
2022-11-29T22:17:21.355Z,6.20
2022-11-29T22:20:24.549Z,6.20
2022-11-29T22:23:27.644Z,6.20
2022-11-29T22:26:32.143Z,6.30
2022-11-29T22:29:35.273Z,6.20
2022-11-29T22:32:38.376Z,6.30
2022-11-29T22:35:44.229Z,6.30
2022-11-29T22:38:47.439Z,6.30
2022-11-29T22:41:54.576Z,6.30
2022-11-29T22:44:58.272Z,6.30
2022-11-29T22:48:01.387Z,6.30
2022-11-29T22:51:06.673Z,6.30
2022-11-29T22:54:11.519Z,6.30
2022-11-29T22:57:16.041Z,6.30
2022-11-29T23:00:19.528Z,6.30
2022-11-29T23:03:22.661Z,6.30
2022-11-29T23:06:27.319Z,6.30
2022-11-29T23:09:30.427Z,6.20
2022-11-29T23:12:34.896Z,6.20
2022-11-29T23:15:37.995Z,6.20
2022-11-29T23:18:42.372Z,6.20
2022-11-29T23:21:46.369Z,6.20
2022-11-29T23:24:49.539Z,6.30
2022-11-29T23:27:55.751Z,6.30
2022-11-29T23:31:00.219Z,6.30
2022-11-29T23:34:03.737Z,6.30
2022-11-29T23:37:06.905Z,6.30
2022-11-29T23:40:11.269Z,6.30
2022-11-29T23:43:15.756Z,6.30
2022-11-29T23:46:20.881Z,6.30
2022-11-29T23:49:24.118Z,6.30
2022-11-29T23:52:27.295Z,6.40
2022-11-29T23:55:30.422Z,6.40
2022-11-29T23:58:35.827Z,6.30
